Warren, Rhode Island
Current Conditions -  °F | °C
As of 10:51 AM on Friday 24 Oct 2014 (Local Time) from KPVD Reporting Station
Overcast Overcast  
Wind Chill: 53°   Ceiling: 1800
Heat Index: 53°   Visibility: 10mi
Dew Point: 46°   Wind: 12mph
Humidity: 77%   Direction: 320°NW
Pressure: 29.72"   Gusts: 21mph
Location:  41.73°N, 71.28°W
Report Text: KPVD 241451Z 32010G18KT 10SM OVC018 12/08 A2972 RMK AO2 SLP063 60000 T01170078 51005
Loading
Personal Weather Stations






























Interactive Weather Map
Tropical Storm Tracking
New forecast layout! Learn more

10-Day Weather Forecast

Advertisements
Track Severe Weather on mobile